Time;durP1;ratioP1;P1;durP2;ratioP2;P2;SDS_P1;SDS_P2;PMS_P1;PMS_P2;Temp;Humidity;BMP_temperature;BMP_pressure;BME280_temperature;BME280_humidity;BME280_pressure;Samples;Min_cycle;Max_cycle;Signal;HPM_P1;HPM_P2
2022/06/25 00:01:20;;;;;;;9.40;3.93;;;17.90;99.90;;;;;;5039501;28;20187;-71
2022/06/25 00:03:45;;;;;;;7.40;5.10;;;17.80;99.90;;;;;;5032181;28;20631;-72
2022/06/25 00:06:12;;;;;;;6.20;4.30;;;17.80;99.90;;;;;;5037038;28;21739;-72
2022/06/25 00:08:38;;;;;;;10.50;4.27;;;17.70;99.90;;;;;;5036163;28;20245;-72
2022/06/25 00:11:05;;;;;;;9.53;4.30;;;17.80;99.90;;;;;;5041531;28;20436;-71
2022/06/25 00:13:31;;;;;;;4.37;3.97;;;17.60;99.90;;;;;;5040548;28;20452;-71
2022/06/25 00:15:57;;;;;;;5.10;4.00;;;17.60;99.90;;;;;;5043688;28;20508;-71
2022/06/25 00:18:23;;;;;;;6.63;3.30;;;17.70;99.90;;;;;;5046575;28;20210;-71
2022/06/25 00:20:49;;;;;;;8.67;4.20;;;17.70;99.90;;;;;;5037589;28;20433;-71
2022/06/25 00:23:14;;;;;;;6.07;4.40;;;17.70;99.90;;;;;;5030536;28;20298;-72
2022/06/25 00:25:40;;;;;;;8.40;4.50;;;17.60;99.90;;;;;;5026412;28;20237;-72
2022/06/25 00:28:06;;;;;;;8.17;4.13;;;17.60;99.90;;;;;;5043215;28;20179;-71
2022/06/25 00:30:32;;;;;;;7.07;4.30;;;17.50;99.90;;;;;;5050713;28;20396;-71
2022/06/25 00:32:59;;;;;;;6.33;3.70;;;17.50;99.90;;;;;;5049094;28;20449;-72
2022/06/25 00:35:25;;;;;;;7.37;4.07;;;17.50;99.90;;;;;;5023146;28;20773;-71
2022/06/25 00:37:51;;;;;;;12.13;4.37;;;17.60;99.90;;;;;;5037261;28;20422;-72
2022/06/25 00:40:17;;;;;;;4.70;4.03;;;17.60;99.90;;;;;;5036657;28;20761;-71
2022/06/25 00:42:47;;;;;;;5.40;4.83;;;17.60;99.90;;;;;;5035679;28;20218;-71
2022/06/25 00:45:13;;;;;;;11.50;4.47;;;17.50;99.90;;;;;;5048438;28;20396;-72
2022/06/25 00:47:39;;;;;;;6.80;4.20;;;17.50;99.90;;;;;;5050525;28;20419;-72
2022/06/25 00:50:05;;;;;;;5.67;4.40;;;17.60;99.90;;;;;;5048695;28;20682;-73
2022/06/25 00:52:33;;;;;;;8.90;4.17;;;17.50;99.90;;;;;;5050054;28;20421;-72
2022/06/25 00:55:05;;;;;;;9.33;4.30;;;17.50;99.90;;;;;;5043739;28;20404;-72
2022/06/25 00:57:33;;;;;;;8.53;4.77;;;17.50;99.90;;;;;;5035659;28;20488;-72
2022/06/25 01:00:03;;;;;;;5.93;4.73;;;17.60;99.90;;;;;;5036164;28;20522;-72
2022/06/25 01:02:29;;;;;;;6.83;4.70;;;17.50;99.90;;;;;;5034932;28;20548;-71
2022/06/25 01:04:54;;;;;;;11.77;4.97;;;17.50;99.90;;;;;;5047107;28;20849;-71
2022/06/25 01:07:20;;;;;;;5.53;4.47;;;17.40;99.90;;;;;;5049670;28;20175;-71
2022/06/25 01:09:48;;;;;;;5.27;4.37;;;17.40;99.90;;;;;;5037202;28;20643;-71
2022/06/25 01:12:13;;;;;;;6.03;4.20;;;17.40;99.90;;;;;;5047560;28;20877;-71
2022/06/25 01:14:39;;;;;;;16.53;5.30;;;17.50;99.90;;;;;;5049501;28;20464;-72
2022/06/25 01:17:09;;;;;;;7.63;4.67;;;17.50;99.90;;;;;;5047993;28;20538;-72
2022/06/25 01:19:36;;;;;;;5.00;4.40;;;17.40;99.90;;;;;;5035528;28;20183;-72
2022/06/25 01:22:06;;;;;;;6.80;4.80;;;17.30;99.90;;;;;;5018135;28;20422;-72
2022/06/25 01:24:32;;;;;;;5.67;4.30;;;17.40;99.90;;;;;;5040023;28;20480;-72
2022/06/25 01:26:58;;;;;;;10.70;4.70;;;17.40;99.90;;;;;;5047818;28;20494;-72
2022/06/25 01:29:24;;;;;;;7.67;4.47;;;17.40;99.90;;;;;;5049433;28;21251;-71
2022/06/25 01:31:51;;;;;;;10.53;5.70;;;17.40;99.90;;;;;;5048164;28;20417;-71
2022/06/25 01:34:17;;;;;;;5.90;4.60;;;17.30;99.90;;;;;;5048240;28;20448;-71
2022/06/25 01:36:42;;;;;;;5.50;4.80;;;17.30;99.90;;;;;;5048893;28;20748;-71
2022/06/25 01:39:08;;;;;;;5.40;4.30;;;17.30;99.90;;;;;;5047023;28;21561;-72
2022/06/25 01:41:33;;;;;;;8.40;4.87;;;17.20;99.90;;;;;;5048746;28;20231;-71
2022/06/25 01:43:59;;;;;;;7.23;5.00;;;17.20;99.90;;;;;;5047107;28;20514;-72
2022/06/25 01:46:25;;;;;;;10.07;5.20;;;17.10;99.90;;;;;;5049040;28;20182;-72
2022/06/25 01:48:50;;;;;;;5.87;4.90;;;17.10;99.90;;;;;;5048543;28;20178;-71
2022/06/25 01:51:17;;;;;;;7.63;4.97;;;17.10;99.90;;;;;;5047506;28;20183;-71
2022/06/25 01:53:43;;;;;;;8.37;6.10;;;17.10;99.90;;;;;;5042872;28;20624;-71
2022/06/25 01:56:09;;;;;;;10.43;6.23;;;17.10;99.90;;;;;;5035632;28;20418;-71
2022/06/25 01:58:35;;;;;;;8.60;6.37;;;17.10;99.90;;;;;;5017034;28;20794;-72
2022/06/25 02:01:01;;;;;;;7.80;5.80;;;17.10;99.90;;;;;;5041460;28;20286;-72
2022/06/25 02:03:26;;;;;;;10.60;6.50;;;17.10;99.90;;;;;;5038520;28;20465;-71
2022/06/25 02:05:58;;;;;;;7.70;6.73;;;17.10;99.90;;;;;;5048622;28;20175;-71
2022/06/25 02:08:30;;;;;;;6.50;5.90;;;17.10;99.90;;;;;;5049041;28;20202;-73
2022/06/25 02:10:56;;;;;;;7.23;5.67;;;17.00;99.90;;;;;;5042754;28;20393;-71
2022/06/25 02:13:22;;;;;;;24.03;6.30;;;17.10;99.90;;;;;;5046241;28;21034;-71
2022/06/25 02:15:48;;;;;;;9.03;6.50;;;17.00;99.90;;;;;;5034584;28;20457;-71
2022/06/25 02:18:14;;;;;;;12.63;6.27;;;17.00;99.90;;;;;;5017618;28;20216;-70
2022/06/25 02:20:40;;;;;;;6.97;6.03;;;17.00;99.90;;;;;;5016602;28;20968;-71
2022/06/25 02:23:06;;;;;;;10.23;6.83;;;17.00;99.90;;;;;;5034746;28;20699;-71
2022/06/25 02:25:32;;;;;;;7.53;5.93;;;17.00;99.90;;;;;;5034256;28;20450;-70
2022/06/25 02:27:58;;;;;;;7.67;5.83;;;17.00;99.90;;;;;;5034509;28;20827;-72
2022/06/25 02:30:24;;;;;;;14.90;6.67;;;16.90;99.90;;;;;;5034473;28;20238;-71
2022/06/25 02:32:49;;;;;;;12.73;6.30;;;16.90;99.90;;;;;;5033988;28;20287;-72
2022/06/25 02:35:15;;;;;;;7.53;6.20;;;16.90;99.90;;;;;;5036718;28;20209;-71
2022/06/25 02:37:40;;;;;;;15.07;7.10;;;17.00;99.90;;;;;;5042492;28;20691;-71
2022/06/25 02:40:07;;;;;;;11.60;6.70;;;16.90;99.90;;;;;;5050619;28;20228;-72
2022/06/25 02:42:34;;;;;;;7.10;6.47;;;16.90;99.90;;;;;;5052175;28;20203;-71
2022/06/25 02:44:59;;;;;;;9.37;7.00;;;16.90;99.90;;;;;;5040591;28;20565;-71
2022/06/25 02:47:25;;;;;;;9.60;6.70;;;16.90;99.90;;;;;;5038217;28;20475;-70
2022/06/25 02:49:51;;;;;;;8.30;7.50;;;16.90;99.90;;;;;;5037784;28;20179;-72
2022/06/25 02:52:16;;;;;;;10.73;6.47;;;16.90;99.90;;;;;;5038559;28;20596;-72
2022/06/25 02:54:42;;;;;;;19.90;7.17;;;16.80;99.90;;;;;;5041620;28;20203;-70
2022/06/25 02:59:51;;;;;;;12.03;6.97;;;16.80;99.90;;;;;;5043059;28;20215;-71
2022/06/25 03:02:17;;;;;;;8.70;7.70;;;16.80;99.90;;;;;;5050714;28;20400;-72
2022/06/25 03:04:43;;;;;;;11.93;6.83;;;16.70;99.90;;;;;;5052298;28;20252;-72
2022/06/25 03:07:08;;;;;;;8.80;6.87;;;16.70;99.90;;;;;;5050292;28;20285;-71
2022/06/25 03:09:34;;;;;;;8.80;7.37;;;16.70;99.90;;;;;;5051929;28;20206;-71
2022/06/25 03:11:59;;;;;;;7.10;6.43;;;16.60;99.90;;;;;;5050486;28;20611;-71
2022/06/25 03:14:25;;;;;;;10.97;7.17;;;16.60;99.90;;;;;;5051620;28;20199;-71
2022/06/25 03:16:51;;;;;;;11.20;7.40;;;16.60;99.90;;;;;;5051676;28;20205;-70
2022/06/25 03:19:16;;;;;;;12.20;6.97;;;16.60;99.90;;;;;;5038787;28;20234;-71
2022/06/25 03:21:44;;;;;;;8.40;7.00;;;16.60;99.90;;;;;;5037094;28;20191;-71
2022/06/25 03:24:09;;;;;;;7.83;6.80;;;16.60;99.90;;;;;;5034302;28;20226;-72
2022/06/25 03:26:35;;;;;;;10.17;6.10;;;16.60;99.90;;;;;;5017381;28;20435;-71
2022/06/25 03:29:02;;;;;;;9.30;6.77;;;16.60;99.90;;;;;;5024310;28;20263;-71
2022/06/25 03:31:28;;;;;;;14.00;8.07;;;16.60;99.90;;;;;;5037609;28;20172;-72
2022/06/25 03:33:53;;;;;;;10.30;6.57;;;16.60;99.90;;;;;;5019044;28;20422;-71
2022/06/25 03:36:19;;;;;;;16.43;7.40;;;16.60;99.90;;;;;;5044955;28;20183;-71
2022/06/25 03:38:44;;;;;;;11.93;6.63;;;16.60;99.90;;;;;;5051074;28;20183;-70
2022/06/25 03:43:54;;;;;;;8.70;6.50;;;16.70;99.90;;;;;;5050810;28;20221;-71
2022/06/25 03:46:19;;;;;;;12.23;8.40;;;16.70;99.90;;;;;;5049392;28;20749;-72
2022/06/25 03:48:45;;;;;;;19.63;7.10;;;16.70;99.90;;;;;;5051185;28;20564;-71
2022/06/25 03:51:10;;;;;;;8.43;6.60;;;16.70;99.90;;;;;;5049064;28;20179;-71
2022/06/25 03:53:36;;;;;;;9.47;6.57;;;16.80;99.90;;;;;;5051077;28;20202;-70
2022/06/25 03:56:02;;;;;;;13.50;7.23;;;16.80;99.90;;;;;;5050431;28;20209;-72
2022/06/25 03:58:28;;;;;;;7.20;6.50;;;16.90;99.90;;;;;;5048100;28;20197;-70
2022/06/25 04:00:53;;;;;;;12.10;6.43;;;16.90;99.90;;;;;;5024482;28;20932;-71
2022/06/25 04:03:19;;;;;;;6.37;5.77;;;16.90;99.90;;;;;;5048927;28;20207;-71
2022/06/25 04:05:44;;;;;;;11.63;6.70;;;17.00;99.90;;;;;;5046744;28;20178;-70
2022/06/25 04:08:10;;;;;;;6.57;5.50;;;17.00;99.90;;;;;;5037787;28;20179;-71
2022/06/25 04:10:36;;;;;;;8.60;5.33;;;17.00;99.90;;;;;;5045309;28;20187;-71
2022/06/25 04:13:02;;;;;;;13.60;6.23;;;17.00;99.90;;;;;;5044580;28;20861;-71
2022/06/25 04:15:27;;;;;;;10.23;5.33;;;17.10;99.90;;;;;;5037788;28;20259;-72
2022/06/25 04:17:53;;;;;;;8.70;5.50;;;17.10;99.90;;;;;;5036819;28;20884;-72
2022/06/25 04:20:19;;;;;;;8.47;6.40;;;17.10;99.90;;;;;;5038705;28;20548;-71
2022/06/25 04:22:44;;;;;;;8.27;5.67;;;17.20;99.90;;;;;;5022582;28;20256;-70
2022/06/25 04:25:10;;;;;;;8.63;5.43;;;17.20;99.90;;;;;;5048956;28;20578;-72
2022/06/25 04:30:19;;;;;;;5.13;4.80;;;17.30;99.90;;;;;;5043618;28;20309;-72
2022/06/25 04:32:45;;;;;;;6.83;5.53;;;17.40;99.90;;;;;;5035819;28;20424;-71
2022/06/25 04:35:10;;;;;;;8.23;5.70;;;17.50;99.90;;;;;;5037498;28;20188;-71
2022/06/25 04:37:36;;;;;;;11.83;6.20;;;17.60;99.90;;;;;;5035961;28;20187;-70
2022/06/25 04:40:02;;;;;;;9.27;4.90;;;17.60;99.90;;;;;;5035360;28;20880;-72
2022/06/25 04:42:28;;;;;;;11.87;5.10;;;17.70;99.90;;;;;;5035911;28;20183;-71
2022/06/25 04:44:53;;;;;;;9.53;4.60;;;17.70;99.90;;;;;;5035714;28;20459;-72
2022/06/25 04:47:19;;;;;;;6.53;5.20;;;17.70;99.90;;;;;;5036839;28;20179;-72
2022/06/25 04:49:44;;;;;;;7.33;5.03;;;17.80;99.90;;;;;;5036296;28;20176;-73
2022/06/25 04:52:10;;;;;;;10.83;4.80;;;17.80;99.90;;;;;;5037793;28;20203;-72
2022/06/25 04:54:36;;;;;;;8.00;5.37;;;17.90;98.20;;;;;;5037532;28;20257;-72
2022/06/25 04:57:01;;;;;;;8.57;5.10;;;18.00;96.90;;;;;;5049200;28;20228;-71
2022/06/25 04:59:27;;;;;;;7.83;5.00;;;18.10;95.30;;;;;;5041363;28;20171;-71
2022/06/25 05:01:54;;;;;;;7.30;4.67;;;18.10;94.70;;;;;;5017175;28;20168;-72
2022/06/25 05:04:19;;;;;;;10.30;4.43;;;18.20;92.60;;;;;;5036199;28;20268;-72
2022/06/25 05:06:45;;;;;;;7.37;4.27;;;18.20;92.00;;;;;;5035217;28;20426;-71
2022/06/25 05:09:11;;;;;;;4.90;3.70;;;18.30;90.80;;;;;;5046596;28;20636;-72
2022/06/25 05:11:37;;;;;;;6.20;4.70;;;18.40;88.60;;;;;;5036909;28;20635;-72
2022/06/25 05:14:03;;;;;;;6.10;3.77;;;18.50;87.30;;;;;;5030790;28;20437;-71
2022/06/25 05:16:28;;;;;;;7.13;4.40;;;18.50;84.60;;;;;;5048342;28;21001;-71
2022/06/25 05:18:54;;;;;;;6.37;4.13;;;18.60;83.20;;;;;;5039586;28;20640;-72
2022/06/25 05:21:20;;;;;;;6.93;4.10;;;18.70;82.50;;;;;;5037301;28;20232;-71
2022/06/25 05:23:45;;;;;;;11.00;5.03;;;18.70;81.40;;;;;;5035803;28;20570;-71
2022/06/25 05:26:11;;;;;;;6.87;4.60;;;18.80;79.50;;;;;;5036652;28;20596;-70
2022/06/25 05:28:37;;;;;;;5.50;5.00;;;18.80;80.60;;;;;;5035335;28;20179;-71
2022/06/25 05:31:03;;;;;;;8.13;5.20;;;18.90;79.40;;;;;;5034874;28;20180;-71
2022/06/25 05:33:28;;;;;;;8.40;4.43;;;19.00;77.10;;;;;;5033869;28;20191;-71
2022/06/25 05:35:54;;;;;;;6.40;4.53;;;19.00;77.60;;;;;;5036136;28;20902;-71
2022/06/25 05:38:20;;;;;;;4.83;4.00;;;19.10;76.10;;;;;;5037432;28;20174;-72
2022/06/25 05:40:46;;;;;;;12.63;5.03;;;19.20;74.10;;;;;;5037546;28;20584;-72
2022/06/25 05:43:12;;;;;;;10.37;4.30;;;19.30;74.10;;;;;;5051953;23;20641;-73
2022/06/25 05:45:38;;;;;;;4.30;3.90;;;19.40;72.40;;;;;;5035096;28;20429;-73
2022/06/25 05:48:04;;;;;;;9.97;4.53;;;19.50;70.30;;;;;;5035442;28;20168;-73
2022/06/25 05:50:30;;;;;;;5.57;4.77;;;19.60;69.60;;;;;;5048805;28;20617;-72
2022/06/25 05:52:56;;;;;;;6.30;5.00;;;19.70;67.20;;;;;;5056645;28;20437;-73
2022/06/25 05:55:23;;;;;;;9.30;4.20;;;19.80;65.80;;;;;;5052756;28;20417;-73
2022/06/25 05:57:49;;;;;;;6.00;4.70;;;19.90;64.40;;;;;;5050697;28;20263;-73
2022/06/25 06:00:15;;;;;;;6.73;4.23;;;19.90;62.10;;;;;;5037213;28;20430;-73
2022/06/25 06:02:41;;;;;;;9.60;4.60;;;20.00;62.00;;;;;;5034465;28;20509;-73
2022/06/25 06:05:07;;;;;;;6.10;4.20;;;20.10;61.40;;;;;;5034622;28;20410;-72
2022/06/25 06:07:33;;;;;;;13.93;4.27;;;20.10;59.60;;;;;;5035167;28;20425;-73
2022/06/25 06:09:59;;;;;;;7.80;4.10;;;20.30;60.30;;;;;;5034442;28;20447;-73
2022/06/25 06:12:25;;;;;;;4.17;3.77;;;20.30;58.70;;;;;;5035501;28;20175;-73
2022/06/25 06:14:50;;;;;;;5.50;4.03;;;20.40;58.40;;;;;;5034800;28;20194;-73
2022/06/25 06:17:16;;;;;;;6.87;4.07;;;20.40;58.40;;;;;;5035247;28;20663;-73
2022/06/25 06:19:41;;;;;;;6.03;4.53;;;20.50;57.10;;;;;;5036904;28;20588;-72
2022/06/25 06:22:07;;;;;;;7.67;3.80;;;20.60;56.50;;;;;;5029956;28;20169;-73
2022/06/25 06:24:33;;;;;;;4.03;3.27;;;20.60;52.90;;;;;;5047202;28;20259;-73
2022/06/25 06:27:00;;;;;;;4.90;3.40;;;20.70;54.10;;;;;;5029387;28;20183;-73
2022/06/25 06:29:25;;;;;;;7.70;3.83;;;20.70;52.40;;;;;;5015548;28;20169;-72
2022/06/25 06:31:51;;;;;;;6.93;3.43;;;20.80;52.10;;;;;;5020889;28;20432;-73
2022/06/25 06:34:17;;;;;;;14.20;3.60;;;20.90;49.60;;;;;;5045156;28;20205;-72
2022/06/25 06:36:42;;;;;;;10.10;2.83;;;21.00;49.10;;;;;;5049108;28;20207;-72
2022/06/25 06:39:08;;;;;;;3.23;2.93;;;21.00;44.00;;;;;;5030863;28;20275;-73
2022/06/25 06:41:34;;;;;;;7.60;3.27;;;21.20;41.50;;;;;;5021835;28;20192;-73
2022/06/25 06:43:59;;;;;;;7.20;3.23;;;21.30;41.40;;;;;;5033667;28;20203;-73
2022/06/25 06:46:25;;;;;;;7.63;2.53;;;21.30;40.10;;;;;;5047932;28;21034;-73
2022/06/25 06:48:50;;;;;;;8.73;3.43;;;21.30;40.70;;;;;;5048559;28;20174;-73
2022/06/25 06:51:16;;;;;;;7.10;3.03;;;21.40;41.60;;;;;;5047674;28;20176;-74
2022/06/25 06:53:41;;;;;;;4.60;2.83;;;21.50;38.90;;;;;;5034123;28;20200;-73
2022/06/25 06:56:07;;;;;;;7.13;3.47;;;21.40;39.10;;;;;;5033774;28;20181;-73
2022/06/25 06:58:33;;;;;;;5.80;3.60;;;21.50;40.10;;;;;;5040815;28;20186;-73
2022/06/25 07:00:58;;;;;;;4.83;2.53;;;21.60;38.30;;;;;;5033625;28;20240;-74
2022/06/25 07:03:24;;;;;;;4.50;2.60;;;21.60;37.10;;;;;;5028611;28;20640;-73
2022/06/25 07:05:49;;;;;;;3.73;2.63;;;21.60;36.50;;;;;;5047844;28;20174;-73
2022/06/25 07:08:15;;;;;;;7.50;3.37;;;21.60;35.90;;;;;;5046591;28;20180;-73
2022/06/25 07:10:40;;;;;;;2.47;2.23;;;21.70;36.50;;;;;;5045257;28;20174;-73
2022/06/25 07:13:06;;;;;;;6.60;2.37;;;21.70;35.70;;;;;;5038741;28;20288;-73
2022/06/25 07:15:31;;;;;;;8.50;3.53;;;21.80;35.50;;;;;;5034043;28;20176;-72
2022/06/25 07:17:57;;;;;;;3.93;2.50;;;21.90;36.40;;;;;;5038522;28;20238;-72
2022/06/25 07:20:22;;;;;;;7.90;2.70;;;21.90;36.00;;;;;;5046661;28;20193;-73
2022/06/25 07:22:48;;;;;;;7.17;2.40;;;21.90;35.60;;;;;;5033303;28;20205;-73
2022/06/25 07:25:14;;;;;;;7.03;2.67;;;22.00;34.30;;;;;;5050824;28;20168;-72
2022/06/25 07:27:39;;;;;;;8.20;3.13;;;22.10;34.30;;;;;;5050602;28;20666;-73
2022/06/25 07:30:06;;;;;;;3.07;2.23;;;22.20;33.00;;;;;;5051302;28;20515;-72
2022/06/25 07:32:31;;;;;;;7.40;2.70;;;22.10;32.80;;;;;;5049477;28;20185;-73
2022/06/25 07:34:57;;;;;;;5.63;2.70;;;22.00;32.90;;;;;;5051188;28;20540;-72
2022/06/25 07:37:23;;;;;;;5.90;2.80;;;22.00;32.50;;;;;;5050011;28;20172;-73
2022/06/25 07:39:48;;;;;;;7.57;2.77;;;22.20;33.00;;;;;;5044714;28;20181;-75
2022/06/25 07:42:14;;;;;;;15.40;3.10;;;22.30;33.70;;;;;;5037879;28;20711;-73
2022/06/25 07:44:39;;;;;;;4.50;2.87;;;22.40;32.30;;;;;;5040304;28;20207;-75
2022/06/25 07:47:05;;;;;;;4.93;2.40;;;22.60;31.30;;;;;;5040767;28;20651;-78
2022/06/25 07:51:56;;;;;;;11.03;3.30;;;22.70;31.80;;;;;;5038461;28;20575;-74
2022/06/25 07:52:16;;;;;;;7.30;1.97;;;22.70;29.90;;;;;;5037231;28;20189;-73
2022/06/25 07:54:42;;;;;;;8.63;3.47;;;22.80;29.50;;;;;;5037036;28;20443;-73
2022/06/25 07:57:08;;;;;;;7.83;2.20;;;22.80;29.10;;;;;;5036801;28;20175;-73
2022/06/25 07:59:33;;;;;;;8.23;2.17;;;22.90;28.30;;;;;;5044100;28;20206;-75
2022/06/25 08:01:59;;;;;;;11.70;2.70;;;22.90;29.20;;;;;;5050373;28;20550;-73
2022/06/25 08:04:24;;;;;;;13.40;2.90;;;22.90;29.50;;;;;;5049348;28;20238;-72
2022/06/25 08:06:50;;;;;;;11.37;2.60;;;23.00;28.00;;;;;;5050987;28;20179;-72
2022/06/25 08:09:16;;;;;;;4.17;2.60;;;23.00;27.00;;;;;;5050275;28;20174;-74
2022/06/25 08:11:56;;;;;;;3.67;2.03;;;22.90;26.90;;;;;;5088901;28;20696;-73
2022/06/25 08:14:21;;;;;;;9.67;2.53;;;23.10;26.40;;;;;;5083464;28;20427;-72
2022/06/25 08:16:47;;;;;;;7.30;2.57;;;23.10;26.50;;;;;;5085847;28;20180;-73
2022/06/25 08:19:13;;;;;;;2.40;2.20;;;23.30;26.00;;;;;;5085652;28;20193;-73
2022/06/25 08:21:38;;;;;;;6.50;2.60;;;23.30;24.90;;;;;;5093832;28;20447;-73
2022/06/25 08:24:04;;;;;;;3.97;2.50;;;23.30;25.80;;;;;;5096561;28;20210;-73
2022/06/25 08:26:30;;;;;;;9.03;2.60;;;23.60;25.80;;;;;;5082993;28;20227;-75
2022/06/25 08:28:56;;;;;;;3.07;2.00;;;23.80;25.90;;;;;;5085296;28;20438;-75
2022/06/25 08:31:23;;;;;;;8.37;2.47;;;24.20;23.80;;;;;;5089559;28;20204;-74
2022/06/25 08:33:48;;;;;;;5.17;2.10;;;24.50;22.80;;;;;;5087923;28;20253;-73
2022/06/25 08:36:14;;;;;;;4.43;1.80;;;24.60;21.50;;;;;;5090156;28;20429;-75
2022/06/25 08:38:39;;;;;;;3.90;2.00;;;24.80;20.60;;;;;;5091895;28;20204;-74
2022/06/25 08:41:05;;;;;;;7.80;2.40;;;25.10;20.00;;;;;;5100157;28;20181;-74
2022/06/25 08:43:31;;;;;;;13.67;2.30;;;25.40;19.10;;;;;;5095183;28;20386;-75
2022/06/25 08:45:57;;;;;;;8.17;2.50;;;25.60;19.50;;;;;;5084300;28;20182;-75
2022/06/25 08:48:24;;;;;;;6.63;2.20;;;25.90;18.50;;;;;;5078740;28;20181;-74
2022/06/25 08:50:51;;;;;;;5.80;1.80;;;26.00;17.40;;;;;;5090081;28;20204;-73
2022/06/25 08:53:17;;;;;;;4.03;2.37;;;25.90;16.90;;;;;;5084146;28;20436;-75
2022/06/25 08:55:44;;;;;;;2.23;1.83;;;25.80;17.10;;;;;;5090255;28;20413;-75
2022/06/25 08:58:11;;;;;;;7.53;2.50;;;25.90;14.80;;;;;;5082751;28;20439;-74
2022/06/25 09:00:40;;;;;;;6.93;2.03;;;25.60;14.50;;;;;;5089154;28;20861;-74
2022/06/25 09:03:07;;;;;;;5.37;2.03;;;25.60;15.20;;;;;;5077262;28;20974;-75
2022/06/25 09:05:41;;;;;;;3.20;2.00;;;25.50;15.50;;;;;;5086962;28;20786;-75
2022/06/25 09:08:11;;;;;;;5.33;1.93;;;25.70;15.50;;;;;;5088784;28;20427;-75
2022/06/25 09:10:39;;;;;;;5.27;2.10;;;25.60;14.80;;;;;;5076287;28;20458;-75
2022/06/25 09:13:08;;;;;;;2.57;1.77;;;25.40;15.70;;;;;;5090889;28;20459;-74
2022/06/25 09:15:38;;;;;;;3.97;2.10;;;25.50;15.00;;;;;;5085336;28;20474;-74
2022/06/25 09:18:07;;;;;;;6.83;2.07;;;25.40;15.00;;;;;;5088249;28;20483;-75
2022/06/25 09:20:34;;;;;;;3.23;2.07;;;25.50;15.30;;;;;;5087537;28;20418;-72
2022/06/25 09:23:06;;;;;;;4.30;2.20;;;25.60;15.70;;;;;;5061203;28;20570;-74
2022/06/25 09:25:34;;;;;;;4.90;1.93;;;26.10;15.70;;;;;;5072078;28;20419;-74
2022/06/25 09:28:01;;;;;;;3.37;1.80;;;26.20;14.60;;;;;;5061959;28;20435;-74
2022/06/25 09:30:29;;;;;;;4.87;2.40;;;26.30;14.00;;;;;;5056271;28;20466;-75
2022/06/25 09:33:00;;;;;;;6.10;2.33;;;26.40;13.80;;;;;;5045163;28;20429;-75
2022/06/25 09:35:41;;;;;;;3.53;1.57;;;26.60;13.50;;;;;;5047530;28;20413;-75
2022/06/25 09:38:14;;;;;;;2.87;2.47;;;26.70;13.60;;;;;;5061986;28;20502;-75
2022/06/25 09:40:47;;;;;;;7.20;2.27;;;26.80;13.30;;;;;;5068162;28;20425;-75
2022/06/25 09:43:18;;;;;;;9.40;2.10;;;26.80;12.80;;;;;;5063080;28;20448;-73
2022/06/25 09:45:48;;;;;;;6.00;2.10;;;26.80;13.40;;;;;;5059211;28;20830;-75
2022/06/25 09:48:28;;;;;;;22.83;3.00;;;26.80;13.30;;;;;;5058519;28;20425;-73
2022/06/25 09:51:12;;;;;;;3.10;2.03;;;26.60;14.20;;;;;;5064214;28;20997;-72
2022/06/25 09:53:52;;;;;;;2.33;1.90;;;26.70;14.90;;;;;;5059628;28;20471;-73
2022/06/25 09:56:22;;;;;;;11.10;2.70;;;26.60;14.60;;;;;;5063625;28;20704;-74
2022/06/25 09:58:49;;;;;;;4.03;2.20;;;26.20;14.90;;;;;;5070176;28;20433;-74
2022/06/25 10:01:17;;;;;;;3.13;2.10;;;26.00;15.60;;;;;;5073000;28;20434;-75
2022/06/25 10:03:44;;;;;;;6.10;1.97;;;26.00;15.40;;;;;;5063727;28;20444;-75
2022/06/25 10:06:22;;;;;;;7.33;2.93;;;26.30;15.80;;;;;;5066999;28;20508;-74
2022/06/25 10:08:50;;;;;;;12.43;2.40;;;26.40;14.90;;;;;;5087151;28;20425;-74
2022/06/25 10:11:21;;;;;;;4.70;1.73;;;26.60;15.00;;;;;;5075217;28;20478;-74
2022/06/25 10:13:51;;;;;;;2.33;2.10;;;26.60;13.60;;;;;;5064682;28;20980;-75
2022/06/25 10:16:21;;;;;;;1.93;1.60;;;26.90;12.90;;;;;;5073078;28;20412;-76
2022/06/25 10:18:49;;;;;;;3.90;2.30;;;27.10;13.60;;;;;;5072767;28;20790;-74
2022/06/25 10:21:15;;;;;;;1.97;1.70;;;27.40;12.70;;;;;;5071850;28;20460;-75
2022/06/25 10:23:41;;;;;;;3.87;2.40;;;27.50;12.30;;;;;;5071625;28;20440;-76
2022/06/25 10:26:09;;;;;;;10.73;1.60;;;27.50;11.80;;;;;;5071993;28;20416;-76
2022/06/25 10:28:35;;;;;;;3.67;1.60;;;27.50;12.00;;;;;;5058841;28;20471;-75
2022/06/25 10:31:06;;;;;;;7.80;2.13;;;27.50;12.00;;;;;;5078569;28;20456;-76
2022/06/25 10:33:51;;;;;;;2.80;1.73;;;27.60;12.20;;;;;;5074278;28;20440;-78
2022/06/25 10:36:17;;;;;;;2.90;2.00;;;27.60;11.50;;;;;;5068051;28;20470;-75
2022/06/25 10:38:43;;;;;;;6.53;3.80;;;27.60;11.20;;;;;;5063424;28;20425;-75
2022/06/25 10:43:57;;;;;;;3.73;2.03;;;27.60;11.40;;;;;;5071563;28;20249;-76
2022/06/25 10:46:36;;;;;;;4.20;2.37;;;27.70;12.70;;;;;;5060768;28;20414;-76
2022/06/25 10:49:11;;;;;;;4.30;1.83;;;27.50;12.30;;;;;;5064056;28;20502;-77
2022/06/25 10:51:43;;;;;;;6.17;1.80;;;27.50;11.80;;;;;;5069844;28;20474;-76
2022/06/25 10:54:33;;;;;;;2.77;2.17;;;27.50;11.20;;;;;;5056084;28;20465;-77
2022/06/25 10:57:00;;;;;;;3.37;1.80;;;27.70;10.70;;;;;;5052406;28;20426;-76
2022/06/25 10:59:32;;;;;;;8.47;2.57;;;27.90;10.30;;;;;;5060933;28;20416;-76
2022/06/25 11:01:59;;;;;;;12.43;2.87;;;27.90;10.70;;;;;;5068111;28;20480;-75
2022/06/25 11:04:29;;;;;;;4.00;1.57;;;28.00;10.70;;;;;;5059085;28;20478;-75
2022/06/25 11:07:11;;;;;;;3.33;1.50;;;28.20;10.00;;;;;;5069128;28;20420;-76
2022/06/25 11:09:38;;;;;;;5.63;1.70;;;28.60;9.20;;;;;;5058675;28;21037;-74
2022/06/25 11:12:07;;;;;;;1.57;1.47;;;29.00;9.90;;;;;;5058125;28;20419;-75
2022/06/25 11:14:33;;;;;;;2.60;2.10;;;29.20;9.00;;;;;;5051404;28;20486;-76
2022/06/25 11:17:07;;;;;;;3.17;1.70;;;29.40;9.00;;;;;;5063667;28;20413;-74
2022/06/25 11:19:33;;;;;;;5.33;1.30;;;29.40;8.90;;;;;;5052033;28;20512;-74
2022/06/25 11:22:01;;;;;;;4.90;1.80;;;29.20;9.20;;;;;;5053398;28;20517;-75
2022/06/25 11:24:27;;;;;;;5.60;1.97;;;28.90;8.90;;;;;;5049688;28;20620;-75
2022/06/25 11:29:51;;;;;;;2.43;1.30;;;28.40;9.40;;;;;;5052230;28;20449;-75
2022/06/25 11:32:22;;;;;;;7.33;1.73;;;28.30;9.50;;;;;;5043903;28;20449;-76
2022/06/25 11:34:55;;;;;;;2.00;1.43;;;28.30;9.60;;;;;;5048264;28;20436;-75
2022/06/25 11:37:22;;;;;;;4.60;1.47;;;28.60;9.70;;;;;;5047577;28;20448;-75
2022/06/25 11:39:48;;;;;;;2.50;1.60;;;29.00;8.50;;;;;;5053296;28;20441;-74
2022/06/25 11:42:17;;;;;;;2.60;1.53;;;29.10;7.80;;;;;;5052238;28;20432;-75
2022/06/25 11:44:52;;;;;;;3.00;2.07;;;29.10;8.20;;;;;;5052732;28;20499;-76
2022/06/25 11:47:26;;;;;;;2.00;1.57;;;29.20;8.20;;;;;;5048559;28;20463;-73
2022/06/25 11:49:52;;;;;;;5.40;2.17;;;29.20;9.00;;;;;;5055806;28;20412;-73
2022/06/25 11:52:20;;;;;;;3.63;2.00;;;29.00;9.40;;;;;;5042448;28;20470;-75
2022/06/25 11:54:47;;;;;;;9.30;2.57;;;28.90;9.40;;;;;;5051391;28;20536;-75
2022/06/25 11:57:28;;;;;;;4.10;2.00;;;29.00;9.90;;;;;;5051061;28;20501;-75
2022/06/25 11:59:55;;;;;;;4.13;2.20;;;29.10;9.90;;;;;;5062548;28;20432;-74
2022/06/25 12:02:22;;;;;;;4.80;1.73;;;29.10;9.10;;;;;;5062025;28;20437;-75
2022/06/25 12:08:09;;;;;;;5.00;1.97;;;29.00;9.40;;;;;;5017752;28;20489;-75
2022/06/25 12:10:35;;;;;;;2.30;1.93;;;28.90;9.30;;;;;;5039269;28;20465;-75
2022/06/25 12:13:01;;;;;;;3.50;1.70;;;28.90;9.30;;;;;;5052699;28;20920;-76
2022/06/25 12:15:30;;;;;;;4.70;1.93;;;28.90;8.50;;;;;;5053012;28;20371;-76
2022/06/25 12:18:06;;;;;;;4.17;1.60;;;29.20;8.80;;;;;;5054299;28;20167;-75
2022/06/25 12:20:31;;;;;;;3.60;1.90;;;29.30;8.20;;;;;;5053257;28;20941;-75
2022/06/25 12:22:58;;;;;;;2.83;1.80;;;29.60;7.40;;;;;;5057734;28;20468;-75
2022/06/25 12:25:26;;;;;;;5.20;2.40;;;29.80;7.60;;;;;;5069184;28;20196;-76
2022/06/25 12:27:52;;;;;;;5.60;1.77;;;29.90;7.20;;;;;;5064497;28;20416;-74
2022/06/25 12:30:25;;;;;;;7.03;1.90;;;30.30;6.70;;;;;;5055348;28;20476;-71
2022/06/25 12:33:34;;;;;;;4.00;1.60;;;30.40;6.40;;;;;;5062917;27;20906;-70
2022/06/25 12:36:00;;;;;;;1.70;1.60;;;30.50;6.40;;;;;;5042573;28;20538;-71
2022/06/25 12:38:25;;;;;;;3.13;2.20;;;30.50;6.50;;;;;;5024741;28;20171;-75
2022/06/25 12:40:51;;;;;;;5.10;1.90;;;30.70;6.30;;;;;;5036867;28;20621;-73
2022/06/25 12:43:18;;;;;;;2.90;1.83;;;30.80;6.50;;;;;;5025062;28;20206;-73
2022/06/25 12:45:46;;;;;;;6.40;2.07;;;30.60;6.00;;;;;;5057555;22;20496;-74
2022/06/25 12:48:13;;;;;;;1.87;1.67;;;30.10;6.70;;;;;;5070612;28;20477;-74
2022/06/25 12:50:40;;;;;;;4.03;1.90;;;29.60;7.10;;;;;;5088917;28;20407;-74
2022/06/25 12:53:10;;;;;;;3.10;1.97;;;29.40;8.00;;;;;;5088369;28;20459;-74
2022/06/25 12:55:36;;;;;;;2.60;1.77;;;29.20;8.40;;;;;;5087880;28;20445;-74
2022/06/25 12:58:06;;;;;;;4.77;1.87;;;29.30;9.30;;;;;;5085321;28;20431;-74
2022/06/25 13:00:34;;;;;;;5.40;2.30;;;29.40;9.10;;;;;;5068088;28;20413;-74
2022/06/25 13:03:00;;;;;;;2.33;2.13;;;29.60;8.90;;;;;;5071862;28;20456;-73